Aeroporto :







RITROVATECI SU...

 
LOGIN :

Iscrizione | Disclaimer

   EN    FR    IT 

 









Sommario :    VFR   VFR Marginale   IFR   IFR Intensivo   IFR Molto Intensivo
Visibilità : 
Base nubi : 
>= 8 km
>= 3000ft
5 / 8 km
1000 / 3000 ft
1500m / 5 km
500 / 1000 ft
800 / 1500m
200 / 500 ft
< 800m
< 200 ft
Simboli :   Temporali  Nebbia  Neve Forte  Precipitazioni Forti  Vento > 20 kt






- Altitudine del aeroporto : 335 ft
- Codice IATA : BTV


KBTV - Burlington International

ULTIMO METAR :
  • 250654Z AUTO 00000KT 10SM CLR M04/M08 A3027 RMK AO2 SLP254 T10391078

METARs OBSOLETI :
  • 250554Z AUTO 17006KT 10SM CLR M01/M06 A3028 RMK AO2 SLP259 T10061061 11006 21050 56005
  • 250454Z 17004KT 10SM CLR M04/M08 A3029 RMK AO2 SLP261 /LAST/ 4/005 T10441083 400501067

TAF KBTV
Valido dal 25 a 06 ore il 26 a 06 ore UTC


250529Z 2506/2606 VRB03KT P6SM SCT180
FM252100 12006KT 3SM -RA BR OVC045
FM260000 12005KT 3SM -RA BR OVC035 WS020/13045KT
FM260500 00000KT 3SM -RA BR OVC020



MetMap, La meteo Aeronautica in un colpo d'occhio ! - Copyright ORBIFLY Dicembre 2007 - Disclaimer

ORBIFLY MET'MAP TEAM :

Programmazione e sviluppo : Alexandra Zaïnal
Concezione : Baudouin d'Aumeries
Aiuto per la programmazione : Marc-Olivier Méhu
Supporto tecnico e logistico : Manuel Goepfert
Aiuto per la traduzione : Arnaldo La Scala

Contatto : metmap@orbifly.com




FONTI E CREDITI :

   NOAA